Time;durP1;ratioP1;P1;durP2;ratioP2;P2;SDS_P1;SDS_P2;PMS_P1;PMS_P2;Temp;Humidity;BMP_temperature;BMP_pressure;BME280_temperature;BME280_humidity;BME280_pressure;Samples;Min_cycle;Max_cycle;Signal;HPM_P1;HPM_P2
2023/03/22 00:01:32;;;;;;;;;;;20.40;81.60;;;;;;5117091;28;19947;-53
2023/03/22 00:03:57;;;;;;;;;;;20.50;81.30;;;;;;5117337;28;19914;-54
2023/03/22 00:06:23;;;;;;;;;;;20.60;81.20;;;;;;5117349;28;19907;-55
2023/03/22 00:08:50;;;;;;;;;;;20.60;81.20;;;;;;5116069;28;19916;-54
2023/03/22 00:11:16;;;;;;;;;;;20.50;81.20;;;;;;5117058;28;19915;-56
2023/03/22 00:13:42;;;;;;;;;;;20.50;81.50;;;;;;5116818;28;19912;-56
2023/03/22 00:16:09;;;;;;;;;;;20.40;81.50;;;;;;5116518;28;19962;-55
2023/03/22 00:18:35;;;;;;;;;;;20.30;81.80;;;;;;5115987;28;19972;-55
2023/03/22 00:21:00;;;;;;;;;;;20.20;81.90;;;;;;5116080;28;19912;-56
2023/03/22 00:23:27;;;;;;;;;;;20.20;82.10;;;;;;5116706;28;19908;-56
2023/03/22 00:25:53;;;;;;;;;;;20.10;82.20;;;;;;5116849;28;19953;-54
2023/03/22 00:28:19;;;;;;;;;;;20.10;82.30;;;;;;5115544;28;20002;-52
2023/03/22 00:30:57;;;;;;;;;;;20.00;82.50;;;;;;5116857;28;20437;-54
2023/03/22 00:33:23;;;;;;;;;;;19.90;82.70;;;;;;5116785;28;19915;-54
2023/03/22 00:35:52;;;;;;;;;;;19.90;82.80;;;;;;5115160;28;20397;-56
2023/03/22 00:38:18;;;;;;;;;;;19.80;82.90;;;;;;5116535;28;19907;-55
2023/03/22 00:40:43;;;;;;;;;;;19.80;83.10;;;;;;5116409;28;20397;-54
2023/03/22 00:43:09;;;;;;;;;;;19.80;83.20;;;;;;5116655;28;20381;-52
2023/03/22 00:45:39;;;;;;;;;;;19.70;83.30;;;;;;5116306;28;19914;-53
2023/03/22 00:48:09;;;;;;;;;;;19.70;83.40;;;;;;5095904;28;19919;-53
2023/03/22 00:50:35;;;;;;;;;;;19.70;83.40;;;;;;5095688;28;19918;-51
2023/03/22 00:53:01;;;;;;;;;;;19.70;83.30;;;;;;5095782;28;19912;-52
2023/03/22 00:55:26;;;;;;;;;;;19.80;83.20;;;;;;5096024;28;19954;-53
2023/03/22 00:57:52;;;;;;;;;;;19.90;83.00;;;;;;5110992;28;20325;-54
2023/03/22 01:00:17;;;;;;;;;;;20.00;82.70;;;;;;5116336;28;19908;-51
2023/03/22 01:02:43;;;;;;;;;;;20.20;82.40;;;;;;5115977;28;19908;-53
2023/03/22 01:05:14;;;;;;;;;;;20.20;82.20;;;;;;5116222;28;19908;-55
2023/03/22 01:07:40;;;;;;;;;;;20.20;82.10;;;;;;5115105;28;19912;-53
2023/03/22 01:10:06;;;;;;;;;;;20.20;82.10;;;;;;5115796;28;20366;-52
2023/03/22 01:12:31;;;;;;;;;;;20.20;82.20;;;;;;5115197;28;19977;-53
2023/03/22 01:14:57;;;;;;;;;;;20.10;82.20;;;;;;5116397;28;19912;-52
2023/03/22 01:17:22;;;;;;;;;;;20.10;82.40;;;;;;5115434;28;20299;-54
2023/03/22 01:19:48;;;;;;;;;;;20.00;82.50;;;;;;5116029;28;19911;-50
2023/03/22 01:22:13;;;;;;;;;;;20.00;82.60;;;;;;5115861;28;19908;-53
2023/03/22 01:24:39;;;;;;;;;;;20.00;82.70;;;;;;5115779;28;20056;-49
2023/03/22 01:27:04;;;;;;;;;;;19.90;82.80;;;;;;5114800;28;19915;-50
2023/03/22 01:29:30;;;;;;;;;;;19.90;83.00;;;;;;5114650;28;19915;-52
2023/03/22 01:31:56;;;;;;;;;;;19.80;83.10;;;;;;5115564;28;20254;-54
2023/03/22 01:34:21;;;;;;;;;;;19.80;83.20;;;;;;5115659;28;19919;-50
2023/03/22 01:36:49;;;;;;;;;;;19.70;83.30;;;;;;5114333;28;19911;-54
2023/03/22 01:39:14;;;;;;;;;;;19.70;83.40;;;;;;5115875;28;19907;-55
2023/03/22 01:41:40;;;;;;;;;;;19.70;83.60;;;;;;5115667;28;19943;-53
2023/03/22 01:44:10;;;;;;;;;;;19.60;83.60;;;;;;5115406;28;19956;-53
2023/03/22 01:46:35;;;;;;;;;;;19.60;83.60;;;;;;5114546;28;19916;-55
2023/03/22 01:49:01;;;;;;;;;;;19.60;83.70;;;;;;5114988;28;19915;-51
2023/03/22 01:51:27;;;;;;;;;;;19.60;83.60;;;;;;5115175;28;19912;-54
2023/03/22 01:54:05;;;;;;;;;;;19.70;83.50;;;;;;5115022;28;20302;-54
2023/03/22 01:56:33;;;;;;;;;;;19.80;83.40;;;;;;5114024;28;19953;-52
2023/03/22 01:58:59;;;;;;;;;;;19.80;83.00;;;;;;5115191;28;19908;-51
2023/03/22 02:01:26;;;;;;;;;;;19.90;82.80;;;;;;5115158;28;19916;-54
2023/03/22 02:03:51;;;;;;;;;;;20.00;82.80;;;;;;5096550;28;20369;-55
2023/03/22 02:06:17;;;;;;;;;;;19.90;82.70;;;;;;5114174;28;19907;-50
2023/03/22 02:08:43;;;;;;;;;;;19.90;82.70;;;;;;5115028;28;20275;-53
2023/03/22 02:11:12;;;;;;;;;;;19.90;82.80;;;;;;5114690;28;19911;-55
2023/03/22 02:13:52;;;;;;;;;;;19.80;82.90;;;;;;5114962;28;20362;-54
2023/03/22 02:16:27;;;;;;;;;;;19.80;82.90;;;;;;5115060;28;19915;-54
2023/03/22 02:19:13;;;;;;;;;;;19.80;83.10;;;;;;5094540;28;19919;-55
2023/03/22 02:22:05;;;;;;;;;;;19.70;83.10;;;;;;5093808;28;20381;-54
2023/03/22 02:24:44;;;;;;;;;;;19.70;83.30;;;;;;5070646;28;19908;-55
2023/03/22 02:27:29;;;;;;;;;;;19.70;83.40;;;;;;5097293;28;19919;-54
2023/03/22 02:29:55;;;;;;;;;;;19.60;83.50;;;;;;5096485;28;19954;-54
2023/03/22 02:32:26;;;;;;;;;;;19.60;83.50;;;;;;5114339;28;19912;-51
2023/03/22 02:35:10;;;;;;;;;;;19.50;83.60;;;;;;5113612;28;19918;-55
2023/03/22 02:37:36;;;;;;;;;;;19.50;83.60;;;;;;5093972;28;19912;-53
2023/03/22 02:40:01;;;;;;;;;;;19.50;83.70;;;;;;5094050;28;19915;-54
2023/03/22 02:42:39;;;;;;;;;;;19.50;84.30;;;;;;5093789;28;20359;-54
2023/03/22 02:45:05;;;;;;;;;;;19.40;83.90;;;;;;5093906;28;20388;-54
2023/03/22 02:47:42;;;;;;;;;;;19.40;83.90;;;;;;5112485;28;19908;-55
2023/03/22 02:50:13;;;;;;;;;;;19.40;83.90;;;;;;5094129;28;19908;-53
2023/03/22 02:52:42;;;;;;;;;;;19.40;84.00;;;;;;5075945;28;19912;-53
2023/03/22 02:55:19;;;;;;;;;;;19.30;84.00;;;;;;5094060;28;19912;-54
2023/03/22 02:57:50;;;;;;;;;;;19.30;84.00;;;;;;5112762;28;20271;-54
2023/03/22 03:00:17;;;;;;;;;;;19.30;84.10;;;;;;5114496;28;20286;-53
2023/03/22 03:02:45;;;;;;;;;;;19.30;84.20;;;;;;5114080;28;19908;-54
2023/03/22 03:05:12;;;;;;;;;;;19.30;84.30;;;;;;5114317;28;19914;-53
2023/03/22 03:07:40;;;;;;;;;;;19.30;84.40;;;;;;5111838;28;19919;-54
2023/03/22 03:10:06;;;;;;;;;;;19.20;84.40;;;;;;5111434;28;19990;-53
2023/03/22 03:12:31;;;;;;;;;;;19.10;84.40;;;;;;5111876;28;19916;-55
2023/03/22 03:14:57;;;;;;;;;;;19.20;84.50;;;;;;5113141;28;20003;-55
2023/03/22 03:17:34;;;;;;;;;;;19.10;84.50;;;;;;5114238;28;19915;-54
2023/03/22 03:20:18;;;;;;;;;;;19.10;84.60;;;;;;5113954;28;19908;-52
2023/03/22 03:22:56;;;;;;;;;;;19.10;84.60;;;;;;5114133;28;19908;-53
2023/03/22 03:25:29;;;;;;;;;;;19.10;84.70;;;;;;5113234;28;19911;-52
2023/03/22 03:28:01;;;;;;;;;;;19.00;84.70;;;;;;5113868;28;19908;-52
2023/03/22 03:30:31;;;;;;;;;;;19.00;84.70;;;;;;5113982;28;20037;-55
2023/03/22 03:32:58;;;;;;;;;;;19.00;84.80;;;;;;5114097;28;19912;-54
2023/03/22 03:35:26;;;;;;;;;;;19.00;84.80;;;;;;5112838;28;19912;-55
2023/03/22 03:37:56;;;;;;;;;;;19.00;84.80;;;;;;5114024;28;20014;-55
2023/03/22 03:40:24;;;;;;;;;;;19.00;84.90;;;;;;5113817;28;19914;-53
2023/03/22 03:42:50;;;;;;;;;;;19.00;84.90;;;;;;5114155;28;20282;-56
2023/03/22 03:45:17;;;;;;;;;;;19.00;85.00;;;;;;5113144;28;19947;-55
2023/03/22 03:47:44;;;;;;;;;;;18.90;84.90;;;;;;5095700;28;20266;-56
2023/03/22 03:50:10;;;;;;;;;;;18.90;85.00;;;;;;5113849;28;19908;-54
2023/03/22 03:52:35;;;;;;;;;;;18.90;85.10;;;;;;5116974;28;19969;-54
2023/03/22 03:55:01;;;;;;;;;;;18.90;85.10;;;;;;5116480;28;19915;-53
2023/03/22 03:57:26;;;;;;;;;;;18.90;85.10;;;;;;5117643;28;20006;-53
2023/03/22 03:59:52;;;;;;;;;;;18.90;85.20;;;;;;5117646;28;19915;-54
2023/03/22 04:02:17;;;;;;;;;;;18.80;85.20;;;;;;5117236;28;19908;-54
2023/03/22 04:04:43;;;;;;;;;;;18.80;85.20;;;;;;5117476;28;19962;-53
2023/03/22 04:07:08;;;;;;;;;;;18.80;85.30;;;;;;5116564;28;19912;-53
2023/03/22 04:09:35;;;;;;;;;;;18.80;85.40;;;;;;5117015;28;19915;-54
2023/03/22 04:12:01;;;;;;;;;;;18.80;85.30;;;;;;5117213;28;20007;-55
2023/03/22 04:14:27;;;;;;;;;;;18.80;85.40;;;;;;5116996;28;19965;-51
2023/03/22 04:16:52;;;;;;;;;;;18.70;85.40;;;;;;5116116;28;19912;-53
2023/03/22 04:19:18;;;;;;;;;;;18.70;85.50;;;;;;5117004;28;20354;-54
2023/03/22 04:21:44;;;;;;;;;;;18.70;85.50;;;;;;5116752;28;19930;-54
2023/03/22 04:24:10;;;;;;;;;;;18.70;85.50;;;;;;5116959;28;19907;-51
2023/03/22 04:26:35;;;;;;;;;;;18.70;85.60;;;;;;5116428;28;20250;-55
2023/03/22 04:29:04;;;;;;;;;;;18.60;85.60;;;;;;5116860;28;19907;-54
2023/03/22 04:31:30;;;;;;;;;;;18.70;85.60;;;;;;5116704;28;19912;-55
2023/03/22 04:33:55;;;;;;;;;;;18.60;85.70;;;;;;5115549;28;20389;-50
2023/03/22 04:36:21;;;;;;;;;;;18.60;85.70;;;;;;5116222;28;19908;-54
2023/03/22 04:38:47;;;;;;;;;;;18.60;85.70;;;;;;5116470;28;19919;-55
2023/03/22 04:41:12;;;;;;;;;;;18.60;86.20;;;;;;5116600;28;19920;-50
2023/03/22 04:43:39;;;;;;;;;;;18.60;85.80;;;;;;5115557;28;20413;-55
2023/03/22 04:46:08;;;;;;;;;;;18.60;85.80;;;;;;5115800;28;19962;-55
2023/03/22 04:48:35;;;;;;;;;;;18.60;85.90;;;;;;5116173;28;19908;-52
2023/03/22 04:51:02;;;;;;;;;;;18.50;85.80;;;;;;5116426;28;19916;-54
2023/03/22 04:53:28;;;;;;;;;;;18.60;85.80;;;;;;5116475;28;19915;-54
2023/03/22 04:55:55;;;;;;;;;;;18.60;85.90;;;;;;5115558;28;20443;-54
2023/03/22 04:58:22;;;;;;;;;;;18.50;85.80;;;;;;5116254;28;19908;-52
2023/03/22 05:00:48;;;;;;;;;;;18.50;85.90;;;;;;5116238;28;19962;-52
2023/03/22 05:03:17;;;;;;;;;;;18.50;85.80;;;;;;5115943;28;19908;-55
2023/03/22 05:05:50;;;;;;;;;;;18.50;85.90;;;;;;5115669;28;20465;-55
2023/03/22 05:08:15;;;;;;;;;;;18.50;86.50;;;;;;5115682;28;20393;-55
2023/03/22 05:10:41;;;;;;;;;;;18.50;86.00;;;;;;5116073;28;19908;-53
2023/03/22 05:13:06;;;;;;;;;;;18.50;86.00;;;;;;5116110;28;20010;-54
2023/03/22 05:15:32;;;;;;;;;;;18.50;86.10;;;;;;5114714;28;20385;-53
2023/03/22 05:17:58;;;;;;;;;;;18.50;86.10;;;;;;5115696;28;20002;-54
2023/03/22 05:20:23;;;;;;;;;;;18.50;86.10;;;;;;5114827;28;19965;-52
2023/03/22 05:22:49;;;;;;;;;;;18.40;86.10;;;;;;5115510;28;20327;-52
2023/03/22 05:25:14;;;;;;;;;;;18.40;86.10;;;;;;5115586;28;19998;-54
2023/03/22 05:27:40;;;;;;;;;;;18.40;86.00;;;;;;5116000;28;19915;-55
2023/03/22 05:30:06;;;;;;;;;;;18.40;86.00;;;;;;5114168;28;20387;-54
2023/03/22 05:32:31;;;;;;;;;;;18.40;86.10;;;;;;5115206;28;19926;-54
2023/03/22 05:34:57;;;;;;;;;;;18.40;86.10;;;;;;5115430;28;19915;-55
2023/03/22 05:37:22;;;;;;;;;;;18.40;86.10;;;;;;5115310;28;19908;-54
2023/03/22 05:39:48;;;;;;;;;;;18.40;86.10;;;;;;5114286;28;19963;-52
2023/03/22 05:42:13;;;;;;;;;;;18.40;86.10;;;;;;5114859;28;20002;-54
2023/03/22 05:44:39;;;;;;;;;;;18.40;86.10;;;;;;5114198;28;19919;-55
2023/03/22 05:47:05;;;;;;;;;;;18.40;86.10;;;;;;5114265;28;20367;-55
2023/03/22 05:49:31;;;;;;;;;;;18.40;86.10;;;;;;5115386;28;19907;-55
2023/03/22 05:51:56;;;;;;;;;;;18.40;86.20;;;;;;5115187;28;19934;-54
2023/03/22 05:54:22;;;;;;;;;;;18.30;86.60;;;;;;5096891;28;19912;-55
2023/03/22 05:56:47;;;;;;;;;;;18.30;86.10;;;;;;5114016;28;19907;-55
2023/03/22 05:59:13;;;;;;;;;;;18.40;86.10;;;;;;5114939;28;20049;-56
2023/03/22 06:01:38;;;;;;;;;;;18.30;86.10;;;;;;5114989;28;19907;-54
2023/03/22 06:04:04;;;;;;;;;;;18.30;86.10;;;;;;5114896;28;19914;-55
2023/03/22 06:06:29;;;;;;;;;;;18.30;86.20;;;;;;5113610;28;19908;-55
2023/03/22 06:08:55;;;;;;;;;;;18.30;86.20;;;;;;5115011;28;20262;-52
2023/03/22 06:11:21;;;;;;;;;;;18.30;86.20;;;;;;5114855;28;19911;-53
2023/03/22 06:13:47;;;;;;;;;;;18.30;86.20;;;;;;5114074;28;19968;-55
2023/03/22 06:16:12;;;;;;;;;;;18.30;86.30;;;;;;5113755;28;19937;-54
2023/03/22 06:18:38;;;;;;;;;;;18.30;86.20;;;;;;5114402;28;19994;-54
2023/03/22 06:21:03;;;;;;;;;;;18.30;86.70;;;;;;5114598;28;19918;-54
2023/03/22 06:23:29;;;;;;;;;;;18.30;86.20;;;;;;5114656;28;19908;-55
2023/03/22 06:25:54;;;;;;;;;;;18.30;86.30;;;;;;5114528;28;20006;-54
2023/03/22 06:28:20;;;;;;;;;;;18.30;86.30;;;;;;5113270;28;19961;-54
2023/03/22 06:30:45;;;;;;;;;;;18.30;86.30;;;;;;5114315;28;19981;-53
2023/03/22 06:33:11;;;;;;;;;;;18.30;86.30;;;;;;5114483;28;19958;-54
2023/03/22 06:35:36;;;;;;;;;;;18.30;86.30;;;;;;5113870;28;20230;-54
2023/03/22 06:38:02;;;;;;;;;;;18.30;86.40;;;;;;5112446;28;20363;-52
2023/03/22 06:40:27;;;;;;;;;;;18.20;86.40;;;;;;5114075;28;20319;-55
2023/03/22 06:42:53;;;;;;;;;;;18.30;86.40;;;;;;5114049;28;19907;-55
2023/03/22 06:45:19;;;;;;;;;;;18.30;86.40;;;;;;5113971;28;19998;-53
2023/03/22 06:47:45;;;;;;;;;;;18.20;86.40;;;;;;5113460;28;19911;-53
2023/03/22 06:50:10;;;;;;;;;;;18.20;86.50;;;;;;5114286;28;19915;-53
2023/03/22 06:52:36;;;;;;;;;;;18.20;86.40;;;;;;5113630;28;20022;-52
2023/03/22 06:55:02;;;;;;;;;;;18.20;86.50;;;;;;5114095;28;19911;-54
2023/03/22 06:57:27;;;;;;;;;;;18.20;86.50;;;;;;5113343;28;19911;-50
2023/03/22 06:59:53;;;;;;;;;;;18.20;87.00;;;;;;5113707;28;20300;-54
2023/03/22 07:02:18;;;;;;;;;;;18.20;86.50;;;;;;5114013;28;19947;-54
2023/03/22 07:04:44;;;;;;;;;;;18.20;86.50;;;;;;5113652;28;19931;-52
2023/03/22 07:07:10;;;;;;;;;;;18.20;86.40;;;;;;5114023;28;20015;-53
2023/03/22 07:09:35;;;;;;;;;;;18.30;86.40;;;;;;5111773;28;20002;-54
2023/03/22 07:12:03;;;;;;;;;;;18.20;86.50;;;;;;5113780;28;19916;-53
2023/03/22 07:14:30;;;;;;;;;;;18.20;86.50;;;;;;5113722;28;19954;-53
2023/03/22 07:16:55;;;;;;;;;;;18.20;86.40;;;;;;5113539;28;20371;-55
2023/03/22 07:19:21;;;;;;;;;;;18.20;86.40;;;;;;5094789;28;19914;-54
2023/03/22 07:21:46;;;;;;;;;;;18.30;86.40;;;;;;5113915;28;20286;-51
2023/03/22 07:24:12;;;;;;;;;;;18.20;86.40;;;;;;5113894;28;19914;-54
2023/03/22 07:26:38;;;;;;;;;;;18.30;86.40;;;;;;5114541;28;19908;-51
2023/03/22 07:29:03;;;;;;;;;;;18.20;86.30;;;;;;5117666;28;19911;-53
2023/03/22 07:31:30;;;;;;;;;;;18.30;86.50;;;;;;5117645;28;20415;-55
2023/03/22 07:33:55;;;;;;;;;;;18.20;86.50;;;;;;5117185;28;20014;-49
2023/03/22 07:36:24;;;;;;;;;;;18.30;86.40;;;;;;5099298;28;19947;-54
2023/03/22 07:38:50;;;;;;;;;;;18.20;86.30;;;;;;5111976;28;20419;-53
2023/03/22 07:41:16;;;;;;;;;;;18.20;86.30;;;;;;5117460;28;20000;-55
2023/03/22 07:43:41;;;;;;;;;;;18.30;86.40;;;;;;5117432;28;19947;-55
2023/03/22 07:46:06;;;;;;;;;;;18.30;86.40;;;;;;5117536;28;19908;-53
2023/03/22 07:48:33;;;;;;;;;;;18.20;86.30;;;;;;5116290;28;19918;-54
2023/03/22 07:50:58;;;;;;;;;;;18.20;86.30;;;;;;5117512;28;19911;-54
2023/03/22 07:53:24;;;;;;;;;;;18.20;86.40;;;;;;5115187;28;20370;-55
2023/03/22 07:55:49;;;;;;;;;;;18.20;86.40;;;;;;5117126;28;19984;-50
2023/03/22 07:58:15;;;;;;;;;;;18.20;86.30;;;;;;5117305;28;20281;-53
2023/03/22 08:00:40;;;;;;;;;;;18.20;86.30;;;;;;5117339;28;19965;-50
2023/03/22 08:03:06;;;;;;;;;;;18.20;86.30;;;;;;5116414;28;19912;-54
2023/03/22 08:05:31;;;;;;;;;;;18.20;86.80;;;;;;5117170;28;20376;-53
2023/03/22 08:07:57;;;;;;;;;;;18.20;86.90;;;;;;5116723;28;19951;-54
2023/03/22 08:10:22;;;;;;;;;;;18.20;86.30;;;;;;5117148;28;19908;-51
2023/03/22 08:12:48;;;;;;;;;;;18.20;86.40;;;;;;5116006;28;19922;-52
2023/03/22 08:15:13;;;;;;;;;;;18.20;86.30;;;;;;5116997;28;20479;-53
2023/03/22 08:17:39;;;;;;;;;;;18.20;86.30;;;;;;5116726;28;19915;-56
2023/03/22 08:20:07;;;;;;;;;;;18.20;86.30;;;;;;5116612;28;19915;-54
2023/03/22 08:22:35;;;;;;;;;;;18.20;86.30;;;;;;5115415;28;20380;-49
2023/03/22 08:25:01;;;;;;;;;;;18.20;86.30;;;;;;5116693;28;19953;-55
2023/03/22 08:27:26;;;;;;;;;;;18.20;86.30;;;;;;5116817;28;19961;-54
2023/03/22 08:29:52;;;;;;;;;;;18.20;86.40;;;;;;5116363;28;20407;-51
2023/03/22 08:32:17;;;;;;;;;;;18.20;86.30;;;;;;5116160;28;19919;-53
2023/03/22 08:34:43;;;;;;;;;;;18.20;86.30;;;;;;5115489;28;19958;-55
2023/03/22 08:37:09;;;;;;;;;;;18.20;86.40;;;;;;5116109;28;19915;-54
2023/03/22 08:39:35;;;;;;;;;;;18.20;86.40;;;;;;5098144;28;19914;-52
2023/03/22 08:42:00;;;;;;;;;;;18.20;86.30;;;;;;5116757;28;20434;-54
2023/03/22 08:44:26;;;;;;;;;;;18.20;86.40;;;;;;5114884;28;20262;-54
2023/03/22 08:46:52;;;;;;;;;;;18.20;86.40;;;;;;5116267;28;19908;-52
2023/03/22 08:49:17;;;;;;;;;;;18.20;86.40;;;;;;5116299;28;19912;-54
2023/03/22 08:51:43;;;;;;;;;;;18.20;86.30;;;;;;5116343;28;20281;-54
2023/03/22 08:54:08;;;;;;;;;;;18.20;86.30;;;;;;5115752;28;19919;-53
2023/03/22 08:56:36;;;;;;;;;;;18.20;86.30;;;;;;5115894;28;19915;-54
2023/03/22 08:59:06;;;;;;;;;;;18.20;86.40;;;;;;5097884;28;19907;-53
2023/03/22 09:01:32;;;;;;;;;;;18.20;86.40;;;;;;5116051;28;19935;-53
2023/03/22 09:03:58;;;;;;;;;;;18.20;86.30;;;;;;5114662;28;20358;-52
2023/03/22 09:06:25;;;;;;;;;;;18.20;86.40;;;;;;5113544;28;20405;-52
2023/03/22 09:08:53;;;;;;;;;;;18.20;86.30;;;;;;5115830;28;19915;-52
2023/03/22 09:11:19;;;;;;;;;;;18.20;86.30;;;;;;5115621;28;19923;-55
2023/03/22 09:13:46;;;;;;;;;;;18.20;86.30;;;;;;5115717;28;19919;-55
2023/03/22 09:16:11;;;;;;;;;;;18.20;86.40;;;;;;5114533;28;19980;-54
2023/03/22 09:18:37;;;;;;;;;;;18.20;86.30;;;;;;5115355;28;19961;-51
2023/03/22 09:21:03;;;;;;;;;;;18.20;86.40;;;;;;5115582;28;19908;-54
2023/03/22 09:23:30;;;;;;;;;;;18.20;86.40;;;;;;5114081;28;19918;-51
2023/03/22 09:25:58;;;;;;;;;;;18.20;86.50;;;;;;5114227;28;20389;-55
2023/03/22 09:28:24;;;;;;;;;;;18.20;86.40;;;;;;5115305;28;19908;-53
2023/03/22 09:30:50;;;;;;;;;;;18.20;86.40;;;;;;5114769;28;20318;-54
2023/03/22 09:33:15;;;;;;;;;;;18.20;86.40;;;;;;5114258;28;19915;-54
2023/03/22 09:35:41;;;;;;;;;;;18.10;86.40;;;;;;5114842;28;19999;-56
2023/03/22 09:38:07;;;;;;;;;;;18.20;86.40;;;;;;5096925;28;19908;-55
2023/03/22 09:40:33;;;;;;;;;;;18.10;86.40;;;;;;5115280;28;19927;-54
2023/03/22 09:43:07;;;;;;;;;;;18.20;86.40;;;;;;5114221;28;20003;-54
2023/03/22 09:45:41;;;;;;;;;;;18.20;86.50;;;;;;5114638;28;19912;-54
2023/03/22 09:48:18;;;;;;;;;;;18.10;86.40;;;;;;5114472;28;19943;-51
2023/03/22 09:50:46;;;;;;;;;;;18.10;86.40;;;;;;5114757;28;19908;-55
2023/03/22 09:53:12;;;;;;;;;;;18.20;86.50;;;;;;5114212;28;19911;-53
2023/03/22 09:56:00;;;;;;;;;;;18.20;86.60;;;;;;5113323;28;19918;-54
2023/03/22 09:58:40;;;;;;;;;;;18.20;86.50;;;;;;5100927;28;20390;-55
2023/03/22 10:01:15;;;;;;;;;;;18.10;86.50;;;;;;5096776;28;20342;-53
2023/03/22 10:03:43;;;;;;;;;;;18.10;86.50;;;;;;5114732;28;19968;-55
2023/03/22 10:06:14;;;;;;;;;;;18.10;86.50;;;;;;5114559;28;19908;-54
2023/03/22 10:08:45;;;;;;;;;;;18.10;86.50;;;;;;5113820;28;19969;-55
2023/03/22 10:11:23;;;;;;;;;;;18.10;87.00;;;;;;5113392;28;20431;-53
2023/03/22 10:14:01;;;;;;;;;;;18.10;86.50;;;;;;5114465;28;19915;-54
2023/03/22 10:16:30;;;;;;;;;;;18.10;86.50;;;;;;5114810;28;20002;-56
2023/03/22 10:19:03;;;;;;;;;;;18.10;86.50;;;;;;5114655;28;19919;-55
2023/03/22 10:21:29;;;;;;;;;;;18.10;86.50;;;;;;5095424;28;19912;-54
2023/03/22 10:23:57;;;;;;;;;;;18.10;86.50;;;;;;5114582;28;20010;-56
2023/03/22 10:26:39;;;;;;;;;;;18.10;86.50;;;;;;5114464;28;19908;-54
2023/03/22 10:29:14;;;;;;;;;;;18.10;86.50;;;;;;5114128;28;19923;-54
2023/03/22 10:31:42;;;;;;;;;;;18.10;86.50;;;;;;5113334;28;19912;-55
2023/03/22 10:34:15;;;;;;;;;;;18.10;86.50;;;;;;5114308;28;19912;-54
2023/03/22 10:36:41;;;;;;;;;;;18.10;86.50;;;;;;5114063;28;19914;-52
2023/03/22 10:39:25;;;;;;;;;;;18.10;86.50;;;;;;5114401;28;19912;-52
2023/03/22 10:41:52;;;;;;;;;;;18.10;86.60;;;;;;5112894;28;20090;-54
2023/03/22 10:44:18;;;;;;;;;;;18.10;86.50;;;;;;5114323;28;19918;-54
2023/03/22 10:46:44;;;;;;;;;;;18.10;86.60;;;;;;5114195;28;19908;-54
2023/03/22 10:49:17;;;;;;;;;;;18.10;86.60;;;;;;5113573;28;20258;-55
2023/03/22 10:51:50;;;;;;;;;;;18.10;86.60;;;;;;5114015;28;19969;-53
2023/03/22 10:54:17;;;;;;;;;;;18.10;86.60;;;;;;5111867;28;19915;-55
2023/03/22 10:56:43;;;;;;;;;;;18.10;86.70;;;;;;5095823;28;19911;-53
2023/03/22 10:59:28;;;;;;;;;;;18.10;86.70;;;;;;5114223;28;20011;-52
2023/03/22 11:01:54;;;;;;;;;;;18.10;86.50;;;;;;5118145;28;19908;-55
2023/03/22 11:04:19;;;;;;;;;;;18.10;86.60;;;;;;5117334;28;19960;-50
2023/03/22 11:06:51;;;;;;;;;;;18.10;86.70;;;;;;5117943;28;19958;-55
2023/03/22 11:09:22;;;;;;;;;;;18.10;86.70;;;;;;5118074;28;19908;-50
2023/03/22 11:12:00;;;;;;;;;;;18.10;86.70;;;;;;5117390;28;19957;-53
2023/03/22 11:14:25;;;;;;;;;;;18.10;86.70;;;;;;5117757;28;20231;-55
2023/03/22 11:16:54;;;;;;;;;;;18.10;86.70;;;;;;5117979;28;19908;-51
2023/03/22 11:19:23;;;;;;;;;;;18.10;86.70;;;;;;5117814;28;20016;-53
2023/03/22 11:21:50;;;;;;;;;;;18.10;86.70;;;;;;5116498;28;19908;-54
2023/03/22 11:24:16;;;;;;;;;;;18.10;86.70;;;;;;5117679;28;20276;-54
2023/03/22 11:26:59;;;;;;;;;;;18.10;86.80;;;;;;5117818;28;19908;-51
2023/03/22 11:29:25;;;;;;;;;;;18.10;86.70;;;;;;5117529;28;19908;-52
2023/03/22 11:31:53;;;;;;;;;;;18.10;86.70;;;;;;5117001;28;19912;-53
2023/03/22 11:34:20;;;;;;;;;;;18.10;86.70;;;;;;5117790;28;19966;-53
2023/03/22 11:36:53;;;;;;;;;;;18.10;86.70;;;;;;5117535;28;19912;-53
2023/03/22 11:39:20;;;;;;;;;;;18.10;86.80;;;;;;5117407;28;19908;-54
2023/03/22 11:41:46;;;;;;;;;;;18.10;86.80;;;;;;5116369;28;20378;-54
2023/03/22 11:44:13;;;;;;;;;;;18.10;86.80;;;;;;5117612;28;19962;-54
2023/03/22 11:46:38;;;;;;;;;;;18.10;86.80;;;;;;5117394;28;19961;-51
2023/03/22 11:49:06;;;;;;;;;;;18.10;86.70;;;;;;5117422;28;19907;-54
2023/03/22 11:51:33;;;;;;;;;;;18.10;86.70;;;;;;5117402;28;19916;-54
2023/03/22 11:54:19;;;;;;;;;;;18.10;86.80;;;;;;5115686;28;20331;-54
2023/03/22 11:56:46;;;;;;;;;;;18.10;86.70;;;;;;5117301;28;20366;-52
2023/03/22 11:59:20;;;;;;;;;;;18.10;86.80;;;;;;5117249;28;19908;-53
2023/03/22 12:02:05;;;;;;;;;;;18.10;86.70;;;;;;5116953;28;19957;-55
2023/03/22 12:04:34;;;;;;;;;;;18.10;86.70;;;;;;5116036;28;20422;-52
2023/03/22 12:07:02;;;;;;;;;;;18.10;86.70;;;;;;5117316;28;20015;-54
2023/03/22 12:09:40;;;;;;;;;;;18.10;86.70;;;;;;5117127;28;19907;-52
2023/03/22 12:12:10;;;;;;;;;;;18.10;86.70;;;;;;5116350;28;20015;-53
2023/03/22 12:14:44;;;;;;;;;;;18.10;86.70;;;;;;5097857;28;19921;-54
2023/03/22 12:17:17;;;;;;;;;;;18.10;86.70;;;;;;5117053;28;19912;-54
2023/03/22 12:19:49;;;;;;;;;;;18.10;86.70;;;;;;5115757;28;20251;-53
2023/03/22 12:22:17;;;;;;;;;;;18.10;86.70;;;;;;5116056;28;19912;-52
2023/03/22 12:24:42;;;;;;;;;;;18.10;86.80;;;;;;5116287;28;20328;-55
2023/03/22 12:27:17;;;;;;;;;;;18.10;86.80;;;;;;5116475;28;19915;-52
2023/03/22 12:29:59;;;;;;;;;;;18.10;86.80;;;;;;5115425;28;19916;-54
2023/03/22 12:32:27;;;;;;;;;;;18.10;86.80;;;;;;5116554;28;19976;-55
2023/03/22 12:34:53;;;;;;;;;;;18.10;86.80;;;;;;5116565;28;19912;-53
2023/03/22 12:37:25;;;;;;;;;;;18.10;86.70;;;;;;5116446;28;19908;-53
2023/03/22 12:39:50;;;;;;;;;;;18.10;86.70;;;;;;5115378;28;19911;-51
2023/03/22 12:42:34;;;;;;;;;;;18.10;86.60;;;;;;5097627;28;19934;-55
2023/03/22 12:45:11;;;;;;;;;;;18.10;86.70;;;;;;5116302;28;19914;-54
2023/03/22 12:47:40;;;;;;;;;;;18.10;86.70;;;;;;5116103;28;19998;-55
2023/03/22 12:50:38;;;;;;;;;;;18.10;86.70;;;;;;5114972;28;19915;-54
2023/03/22 12:53:04;;;;;;;;;;;18.10;86.80;;;;;;5042907;28;20327;-52
2023/03/22 12:55:36;;;;;;;;;;;18.10;86.80;;;;;;5115775;28;20010;-54
2023/03/22 12:58:06;;;;;;;;;;;18.10;86.70;;;;;;5116034;28;19908;-53
2023/03/22 13:00:33;;;;;;;;;;;18.10;86.70;;;;;;5115074;28;20407;-53
2023/03/22 13:03:05;;;;;;;;;;;18.10;86.80;;;;;;5116067;28;20003;-54
2023/03/22 13:05:32;;;;;;;;;;;18.00;86.70;;;;;;5115793;28;19907;-49
2023/03/22 13:08:02;;;;;;;;;;;18.10;86.80;;;;;;5115450;28;19943;-53
2023/03/22 13:10:30;;;;;;;;;;;18.10;86.90;;;;;;5114550;28;20389;-53
2023/03/22 13:13:08;;;;;;;;;;;18.10;86.70;;;;;;5115661;28;20054;-52
2023/03/22 13:15:35;;;;;;;;;;;18.10;86.50;;;;;;5115598;28;19912;-53
2023/03/22 13:18:01;;;;;;;;;;;18.10;86.80;;;;;;5114137;28;19914;-54
2023/03/22 13:20:29;;;;;;;;;;;18.10;86.80;;;;;;5115431;28;19907;-55
2023/03/22 13:22:55;;;;;;;;;;;18.10;86.70;;;;;;5115139;28;20290;-53
2023/03/22 13:25:25;;;;;;;;;;;18.00;86.70;;;;;;5115042;28;19973;-53
2023/03/22 13:27:52;;;;;;;;;;;18.10;86.80;;;;;;5115569;28;19907;-54
2023/03/22 13:30:21;;;;;;;;;;;18.10;86.70;;;;;;5114498;28;19912;-53
2023/03/22 13:32:50;;;;;;;;;;;18.00;86.50;;;;;;5115495;28;20006;-54
2023/03/22 13:35:22;;;;;;;;;;;18.00;86.70;;;;;;5115329;28;20377;-54
2023/03/22 13:37:49;;;;;;;;;;;18.00;86.60;;;;;;5115137;28;20360;-55
2023/03/22 13:40:26;;;;;;;;;;;18.10;86.70;;;;;;5114108;28;19912;-51
2023/03/22 13:42:51;;;;;;;;;;;18.10;87.20;;;;;;5115237;28;19912;-51
2023/03/22 13:45:32;;;;;;;;;;;18.10;86.70;;;;;;5114942;28;19960;-51
2023/03/22 13:48:03;;;;;;;;;;;18.00;86.70;;;;;;5115053;28;19912;-51
2023/03/22 13:50:29;;;;;;;;;;;18.10;86.60;;;;;;5114223;28;19957;-54
2023/03/22 13:53:03;;;;;;;;;;;18.10;86.60;;;;;;5096640;28;20407;-54
2023/03/22 13:55:56;;;;;;;;;;;18.10;86.70;;;;;;5114581;28;19912;-52
2023/03/22 13:58:37;;;;;;;;;;;18.10;86.70;;;;;;5114761;28;19953;-50
2023/03/22 14:01:04;;;;;;;;;;;18.00;87.00;;;;;;5095696;28;19912;-53
2023/03/22 14:03:33;;;;;;;;;;;18.00;86.70;;;;;;5114654;28;19919;-55
2023/03/22 14:06:03;;;;;;;;;;;18.10;86.80;;;;;;5114517;28;19998;-54
2023/03/22 14:08:29;;;;;;;;;;;18.00;86.60;;;;;;5114602;28;19943;-50
2023/03/22 14:10:56;;;;;;;;;;;18.00;86.60;;;;;;5113103;28;20436;-53
2023/03/22 14:13:28;;;;;;;;;;;18.00;86.70;;;;;;5114491;28;19995;-51
2023/03/22 14:16:12;;;;;;;;;;;18.00;86.60;;;;;;5114888;28;19907;-54
2023/03/22 14:18:40;;;;;;;;;;;18.00;86.70;;;;;;5112731;28;20274;-52
2023/03/22 14:21:08;;;;;;;;;;;18.00;86.60;;;;;;5113939;28;19918;-55
2023/03/22 14:23:38;;;;;;;;;;;18.00;86.60;;;;;;5114477;28;20010;-54